Time;durP1;ratioP1;P1;durP2;ratioP2;P2;SDS_P1;SDS_P2;PMS_P1;PMS_P2;Temp;Humidity;BMP_temperature;BMP_pressure;BME280_temperature;BME280_humidity;BME280_pressure;Samples;Min_cycle;Max_cycle;Signal;HPM_P1;HPM_P2
2024/01/31 00:01:33;;;;;;;1.63;1.53;;;;;;;;;;5040409;28;20238;-87
2024/01/31 00:04:01;;;;;;;2.13;2.03;;;;;;;;;;5040965;28;20260;-88
2024/01/31 00:06:30;;;;;;;1.80;1.70;;;;;;;;;;5041804;28;20416;-88
2024/01/31 00:09:03;;;;;;;2.97;2.77;;;;;;;;;;5041663;28;20306;-87
2024/01/31 00:11:32;;;;;;;2.17;1.83;;;;;;;;;;5042405;28;20227;-89
2024/01/31 00:14:00;;;;;;;1.60;1.50;;;;;;;;;;5041736;28;20247;-88
2024/01/31 00:16:28;;;;;;;2.50;2.30;;;;;;;;;;5040642;28;20216;-87
2024/01/31 00:18:58;;;;;;;0.80;0.80;;;;;;;;;;5041118;28;20282;-87
2024/01/31 00:21:26;;;;;;;1.60;1.50;;;;;;;;;;5040457;28;20216;-87
2024/01/31 00:23:54;;;;;;;1.60;1.57;;;;;;;;;;5042081;28;20628;-87
2024/01/31 00:26:23;;;;;;;1.80;1.47;;;;;;;;;;5041052;28;20204;-89
2024/01/31 00:28:50;;;;;;;3.40;1.50;;;;;;;;;;5040372;28;20261;-88
2024/01/31 00:31:19;;;;;;;1.13;1.13;;;;;;;;;;5040369;28;20318;-87
2024/01/31 00:33:47;;;;;;;1.77;1.67;;;;;;;;;;5040363;28;20200;-88
2024/01/31 00:36:16;;;;;;;4.53;2.67;;;;;;;;;;5040265;28;20219;-87
2024/01/31 00:38:44;;;;;;;2.90;1.50;;;;;;;;;;5040903;28;20585;-86
2024/01/31 00:41:12;;;;;;;6.33;2.30;;;;;;;;;;5040308;28;20207;-87
2024/01/31 00:43:40;;;;;;;2.30;1.57;;;;;;;;;;5038772;28;20647;-88
2024/01/31 00:46:08;;;;;;;0.97;0.97;;;;;;;;;;5038171;28;20605;-87
2024/01/31 00:48:36;;;;;;;7.87;2.10;;;;;;;;;;5038354;28;20800;-89
2024/01/31 00:51:04;;;;;;;1.60;1.40;;;;;;;;;;5036859;28;20642;-87
2024/01/31 00:53:35;;;;;;;2.43;2.33;;;;;;;;;;5038481;28;20651;-87
2024/01/31 00:56:03;;;;;;;5.00;2.23;;;;;;;;;;5044176;28;20191;-86
2024/01/31 00:58:34;;;;;;;2.23;2.13;;;;;;;;;;5048869;28;20200;-87
2024/01/31 01:01:02;;;;;;;1.23;1.17;;;;;;;;;;5036611;28;20199;-87
2024/01/31 01:03:30;;;;;;;1.83;1.73;;;;;;;;;;5038254;28;20597;-86
2024/01/31 01:05:59;;;;;;;1.90;1.80;;;;;;;;;;5037254;28;20188;-86
2024/01/31 01:08:28;;;;;;;2.60;2.50;;;;;;;;;;5037132;28;20311;-87
2024/01/31 01:11:01;;;;;;;3.90;1.87;;;;;;;;;;5037862;28;20224;-87
2024/01/31 01:13:30;;;;;;;1.53;1.43;;;;;;;;;;5037738;28;20335;-87
2024/01/31 01:15:59;;;;;;;1.63;1.30;;;;;;;;;;5037137;28;20195;-87
2024/01/31 01:18:30;;;;;;;1.50;1.50;;;;;;;;;;5037163;28;20211;-87
2024/01/31 01:20:59;;;;;;;3.10;2.53;;;;;;;;;;5036713;28;20203;-87
2024/01/31 01:23:28;;;;;;;3.57;1.37;;;;;;;;;;5037476;28;20224;-87
2024/01/31 01:25:57;;;;;;;4.30;2.93;;;;;;;;;;5037568;28;20204;-87
2024/01/31 01:28:29;;;;;;;2.37;2.17;;;;;;;;;;5037838;28;20204;-88
2024/01/31 01:30:57;;;;;;;2.20;2.10;;;;;;;;;;5038302;28;20222;-87
2024/01/31 01:33:28;;;;;;;2.53;2.33;;;;;;;;;;5038661;28;20204;-88
2024/01/31 01:36:00;;;;;;;6.80;1.37;;;;;;;;;;5037945;28;20639;-88
2024/01/31 01:38:30;;;;;;;3.30;3.00;;;;;;;;;;5036726;28;20199;-88
2024/01/31 01:41:01;;;;;;;2.10;2.00;;;;;;;;;;5037183;28;20192;-86
2024/01/31 01:43:30;;;;;;;2.30;1.77;;;;;;;;;;5037972;28;20362;-85
2024/01/31 01:46:03;;;;;;;2.07;1.70;;;;;;;;;;5045801;28;20211;-87
2024/01/31 01:48:32;;;;;;;6.87;2.53;;;;;;;;;;5052010;28;20304;-88
2024/01/31 01:51:02;;;;;;;1.67;1.57;;;;;;;;;;5046885;28;20323;-87
2024/01/31 01:53:31;;;;;;;3.07;1.93;;;;;;;;;;5037976;28;20200;-87
2024/01/31 01:56:01;;;;;;;3.20;1.43;;;;;;;;;;5036130;28;20251;-87
2024/01/31 01:58:32;;;;;;;3.63;2.40;;;;;;;;;;5036616;28;20283;-87
2024/01/31 02:01:00;;;;;;;2.43;2.07;;;;;;;;;;5039928;28;20228;-86
2024/01/31 02:03:29;;;;;;;4.37;2.43;;;;;;;;;;5049803;28;20299;-87
2024/01/31 02:05:59;;;;;;;3.00;2.17;;;;;;;;;;5048597;28;20436;-89
2024/01/31 02:08:29;;;;;;;4.30;1.37;;;;;;;;;;5047901;28;20247;-87
2024/01/31 02:10:56;;;;;;;9.17;1.57;;;;;;;;;;5055975;28;20287;-88
2024/01/31 02:13:29;;;;;;;2.07;1.97;;;;;;;;;;5036048;28;20231;-87
2024/01/31 02:15:57;;;;;;;2.47;1.60;;;;;;;;;;5016544;28;20210;-87
2024/01/31 02:18:27;;;;;;;9.87;2.53;;;;;;;;;;5016293;28;20211;-88
2024/01/31 02:20:55;;;;;;;2.73;1.90;;;;;;;;;;5016833;28;20278;-87
2024/01/31 02:23:25;;;;;;;9.23;2.87;;;;;;;;;;5016015;28;20212;-88
2024/01/31 02:25:53;;;;;;;2.20;2.07;;;;;;;;;;5017110;28;20188;-87
2024/01/31 02:28:21;;;;;;;9.73;2.70;;;;;;;;;;5033923;28;20739;-87
2024/01/31 02:30:49;;;;;;;3.67;1.90;;;;;;;;;;5033004;28;20763;-88
2024/01/31 02:33:17;;;;;;;1.70;1.60;;;;;;;;;;5022451;28;20741;-87
2024/01/31 02:35:50;;;;;;;1.80;1.37;;;;;;;;;;5018151;28;20197;-87
2024/01/31 02:38:20;;;;;;;2.33;1.33;;;;;;;;;;5016266;28;20573;-87
2024/01/31 02:40:59;;;;;;;6.03;2.97;;;;;;;;;;5016573;28;20204;-86
2024/01/31 02:43:26;;;;;;;2.10;1.90;;;;;;;;;;5017313;28;20206;-88
2024/01/31 02:45:54;;;;;;;1.57;1.57;;;;;;;;;;5016094;28;20204;-87
2024/01/31 02:48:21;;;;;;;6.40;2.40;;;;;;;;;;5016661;28;20611;-87
2024/01/31 02:50:51;;;;;;;1.60;1.53;;;;;;;;;;5016402;28;20217;-87
2024/01/31 02:53:22;;;;;;;1.53;1.43;;;;;;;;;;5016185;28;20197;-88
2024/01/31 02:55:51;;;;;;;4.53;2.37;;;;;;;;;;5020523;28;20199;-87
2024/01/31 02:58:21;;;;;;;9.53;2.97;;;;;;;;;;5035643;28;20208;-87
2024/01/31 03:00:49;;;;;;;3.13;2.93;;;;;;;;;;5034893;28;20204;-86
2024/01/31 03:03:21;;;;;;;6.60;2.33;;;;;;;;;;5037328;28;20227;-88
2024/01/31 03:05:49;;;;;;;1.67;1.67;;;;;;;;;;5049712;28;20192;-87
2024/01/31 03:08:17;;;;;;;4.60;2.07;;;;;;;;;;5037608;28;20594;-87
2024/01/31 03:10:46;;;;;;;2.03;1.93;;;;;;;;;;5034830;28;20224;-88
2024/01/31 03:13:18;;;;;;;1.47;1.47;;;;;;;;;;5035314;28;20204;-88
2024/01/31 03:15:53;;;;;;;2.77;2.60;;;;;;;;;;5035430;28;20671;-87
2024/01/31 03:18:22;;;;;;;2.67;2.43;;;;;;;;;;5035591;28;20207;-86
2024/01/31 03:20:54;;;;;;;6.30;3.23;;;;;;;;;;5035096;28;20204;-86
2024/01/31 03:23:23;;;;;;;2.60;2.50;;;;;;;;;;5035442;28;20192;-87
2024/01/31 03:25:52;;;;;;;4.53;4.13;;;;;;;;;;5036632;28;20277;-87
2024/01/31 03:28:21;;;;;;;5.97;2.40;;;;;;;;;;5035645;28;20204;-86
2024/01/31 03:30:51;;;;;;;3.27;3.03;;;;;;;;;;5036052;28;20224;-88
2024/01/31 03:33:22;;;;;;;3.73;1.57;;;;;;;;;;5035645;28;20200;-86
2024/01/31 03:35:51;;;;;;;3.07;2.83;;;;;;;;;;5036080;28;20293;-87
2024/01/31 03:38:23;;;;;;;1.97;1.87;;;;;;;;;;5036699;28;20206;-87
2024/01/31 03:40:52;;;;;;;3.03;2.83;;;;;;;;;;5037161;28;20215;-87
2024/01/31 03:43:22;;;;;;;3.10;2.77;;;;;;;;;;5035435;28;20231;-88
2024/01/31 03:45:55;;;;;;;3.60;3.33;;;;;;;;;;5037139;28;20196;-87
2024/01/31 03:48:22;;;;;;;4.93;3.43;;;;;;;;;;5035140;28;20258;-88
2024/01/31 03:51:26;;;;;;;2.37;2.17;;;;;;;;;;5037594;28;20242;-87
2024/01/31 03:53:55;;;;;;;1.50;1.50;;;;;;;;;;5036347;28;20238;-87
2024/01/31 03:56:23;;;;;;;6.03;3.80;;;;;;;;;;5035614;28;20203;-88
2024/01/31 03:58:57;;;;;;;2.40;2.30;;;;;;;;;;5038624;28;20200;-87
2024/01/31 04:01:27;;;;;;;6.93;4.00;;;;;;;;;;5042109;28;20219;-86
2024/01/31 04:03:57;;;;;;;3.80;3.43;;;;;;;;;;5037395;28;20623;-88
2024/01/31 04:06:25;;;;;;;3.97;2.97;;;;;;;;;;5035311;28;20192;-87
2024/01/31 04:08:55;;;;;;;3.50;3.23;;;;;;;;;;5035910;28;20216;-87
2024/01/31 04:11:25;;;;;;;4.40;3.57;;;;;;;;;;5037440;28;20227;-88
2024/01/31 04:13:53;;;;;;;2.90;2.70;;;;;;;;;;5035367;28;20204;-88
2024/01/31 04:16:21;;;;;;;4.47;3.17;;;;;;;;;;5034562;28;20259;-87
2024/01/31 04:18:50;;;;;;;2.47;2.37;;;;;;;;;;5038777;28;20203;-89
2024/01/31 04:21:24;;;;;;;4.27;2.20;;;;;;;;;;5038462;28;20273;-87
2024/01/31 04:23:52;;;;;;;1.90;1.90;;;;;;;;;;5039441;28;20192;-87
2024/01/31 04:26:21;;;;;;;5.40;2.90;;;;;;;;;;5039103;28;20196;-88
2024/01/31 04:28:49;;;;;;;3.93;3.60;;;;;;;;;;5039381;28;20259;-86
2024/01/31 04:31:17;;;;;;;1.97;1.87;;;;;;;;;;5038761;28;20290;-86
2024/01/31 04:33:46;;;;;;;2.80;2.67;;;;;;;;;;5038097;28;20204;-87
2024/01/31 04:36:17;;;;;;;2.17;1.97;;;;;;;;;;5037274;28;20206;-87
2024/01/31 04:38:51;;;;;;;4.10;2.23;;;;;;;;;;5038144;28;20200;-87
2024/01/31 04:41:19;;;;;;;5.40;2.50;;;;;;;;;;5039084;28;20211;-87
2024/01/31 04:43:47;;;;;;;7.43;5.03;;;;;;;;;;5038052;28;20523;-88
2024/01/31 04:46:16;;;;;;;2.80;2.60;;;;;;;;;;5039284;28;20211;-86
2024/01/31 04:48:44;;;;;;;5.37;2.00;;;;;;;;;;5039777;28;20238;-88
2024/01/31 04:51:13;;;;;;;5.77;3.10;;;;;;;;;;5040010;28;20327;-86
2024/01/31 04:53:43;;;;;;;3.37;3.17;;;;;;;;;;5039050;28;20262;-87
2024/01/31 04:56:10;;;;;;;6.07;3.97;;;;;;;;;;5038836;28;20204;-87
2024/01/31 04:58:39;;;;;;;7.07;4.57;;;;;;;;;;5037922;28;20200;-88
2024/01/31 05:01:08;;;;;;;3.10;2.83;;;;;;;;;;5038207;28;20211;-87
2024/01/31 05:03:36;;;;;;;1.73;1.63;;;;;;;;;;5039256;28;20196;-87
2024/01/31 05:06:04;;;;;;;4.13;3.07;;;;;;;;;;5038088;28;20196;-86
2024/01/31 05:08:33;;;;;;;14.53;5.27;;;;;;;;;;5038709;28;20231;-86
2024/01/31 05:11:01;;;;;;;3.27;2.97;;;;;;;;;;5038875;28;20204;-87
2024/01/31 05:13:30;;;;;;;4.70;3.97;;;;;;;;;;5046736;28;20204;-86
2024/01/31 05:15:59;;;;;;;2.97;2.77;;;;;;;;;;5044686;28;20196;-86
2024/01/31 05:18:27;;;;;;;4.77;2.33;;;;;;;;;;5040433;28;20196;-86
2024/01/31 05:20:56;;;;;;;1.43;1.40;;;;;;;;;;5040303;28;20200;-87
2024/01/31 05:23:23;;;;;;;7.13;3.67;;;;;;;;;;5040206;28;20196;-88
2024/01/31 05:26:06;;;;;;;6.97;4.07;;;;;;;;;;5040979;28;20622;-87
2024/01/31 05:28:38;;;;;;;3.77;3.57;;;;;;;;;;5041521;28;20196;-86
2024/01/31 05:31:07;;;;;;;4.87;2.67;;;;;;;;;;5044571;28;20248;-87
2024/01/31 05:33:36;;;;;;;3.37;3.03;;;;;;;;;;5051825;28;20196;-87
2024/01/31 05:36:04;;;;;;;17.20;5.93;;;;;;;;;;5051155;28;20230;-85
2024/01/31 05:38:32;;;;;;;6.23;4.50;;;;;;;;;;5051912;28;20252;-86
2024/01/31 05:41:00;;;;;;;6.43;3.43;;;;;;;;;;5051304;28;20255;-86
2024/01/31 05:43:28;;;;;;;2.43;2.27;;;;;;;;;;5052262;28;20196;-89
2024/01/31 05:45:57;;;;;;;4.07;3.73;;;;;;;;;;5052081;28;20555;-87
2024/01/31 05:48:25;;;;;;;5.63;4.63;;;;;;;;;;5049785;28;20232;-85
2024/01/31 05:50:53;;;;;;;7.60;2.90;;;;;;;;;;5050069;28;20250;-86
2024/01/31 05:53:21;;;;;;;4.20;3.80;;;;;;;;;;5052669;28;20223;-87
2024/01/31 05:55:49;;;;;;;3.67;3.47;;;;;;;;;;5046583;28;20196;-87
2024/01/31 05:58:18;;;;;;;2.90;2.67;;;;;;;;;;5043423;28;20204;-86
2024/01/31 06:00:49;;;;;;;4.90;4.50;;;;;;;;;;5039577;28;20208;-87
2024/01/31 06:03:20;;;;;;;5.93;4.87;;;;;;;;;;5042245;28;20267;-87
2024/01/31 06:05:48;;;;;;;5.17;3.67;;;;;;;;;;5042499;28;20191;-86
2024/01/31 06:08:18;;;;;;;5.27;4.77;;;;;;;;;;5038361;28;20208;-88
2024/01/31 06:10:49;;;;;;;9.73;5.07;;;;;;;;;;5038356;28;20282;-87
2024/01/31 06:13:18;;;;;;;5.47;3.37;;;;;;;;;;5036646;28;20334;-87
2024/01/31 06:15:48;;;;;;;5.63;5.00;;;;;;;;;;5042035;28;20289;-87
2024/01/31 06:18:16;;;;;;;10.03;5.13;;;;;;;;;;5046104;28;20231;-86
2024/01/31 06:20:48;;;;;;;7.00;4.97;;;;;;;;;;5046393;28;20711;-87
2024/01/31 06:23:15;;;;;;;8.73;6.27;;;;;;;;;;5045552;28;20208;-86
2024/01/31 06:25:43;;;;;;;16.20;5.83;;;;;;;;;;5045057;28;20199;-86
2024/01/31 06:28:11;;;;;;;9.37;6.60;;;;;;;;;;5045666;28;20235;-87
2024/01/31 06:30:44;;;;;;;15.47;6.40;;;;;;;;;;5046445;28;20192;-86
2024/01/31 06:33:12;;;;;;;9.17;6.93;;;;;;;;;;5043316;28;20236;-88
2024/01/31 06:35:42;;;;;;;13.23;7.03;;;;;;;;;;5040245;28;20295;-86
2024/01/31 06:38:16;;;;;;;17.97;7.67;;;;;;;;;;5045219;28;20203;-86
2024/01/31 06:40:44;;;;;;;17.57;8.43;;;;;;;;;;5044181;28;20203;-87
2024/01/31 06:43:13;;;;;;;20.10;8.17;;;;;;;;;;5043422;28;20670;-86
2024/01/31 06:45:40;;;;;;;16.47;9.17;;;;;;;;;;5045675;28;20207;-87
2024/01/31 06:48:12;;;;;;;20.03;8.27;;;;;;;;;;5044716;28;20263;-86
2024/01/31 06:50:38;;;;;;;16.77;8.27;;;;;;;;;;5042241;28;20204;-87
2024/01/31 06:53:06;;;;;;;18.10;6.80;;;;;;;;;;5041010;28;20238;-86
2024/01/31 06:55:46;;;;;;;20.27;8.33;;;;;;;;;;5039746;28;20566;-86
2024/01/31 06:58:14;;;;;;;14.73;7.77;;;;;;;;;;5040192;28;20215;-86
2024/01/31 07:00:44;;;;;;;22.20;9.90;;;;;;;;;;5050040;28;20274;-87
2024/01/31 07:03:12;;;;;;;19.40;8.57;;;;;;;;;;5046768;28;20195;-87
2024/01/31 07:05:41;;;;;;;20.17;9.87;;;;;;;;;;5041867;28;20235;-87
2024/01/31 07:08:11;;;;;;;16.27;8.93;;;;;;;;;;5040090;28;20220;-88
2024/01/31 07:10:41;;;;;;;14.70;8.23;;;;;;;;;;5041840;28;20195;-86
2024/01/31 07:13:11;;;;;;;17.77;7.97;;;;;;;;;;5043650;28;20224;-86
2024/01/31 07:15:39;;;;;;;13.60;9.33;;;;;;;;;;5042281;28;20192;-87
2024/01/31 07:18:07;;;;;;;26.93;9.80;;;;;;;;;;5042907;28;20200;-85
2024/01/31 07:20:35;;;;;;;16.80;8.43;;;;;;;;;;5043409;28;20692;-85
2024/01/31 07:23:04;;;;;;;21.27;10.27;;;;;;;;;;5043364;28;20188;-86
2024/01/31 07:25:34;;;;;;;13.10;7.93;;;;;;;;;;5046161;28;20195;-87
2024/01/31 07:28:05;;;;;;;24.33;9.73;;;;;;;;;;5043519;28;20656;-87
2024/01/31 07:30:32;;;;;;;19.67;10.77;;;;;;;;;;5039297;28;20200;-87
2024/01/31 07:33:00;;;;;;;18.83;9.63;;;;;;;;;;5039314;28;20257;-87
2024/01/31 07:35:29;;;;;;;22.57;10.67;;;;;;;;;;5041687;28;20736;-86
2024/01/31 07:37:59;;;;;;;19.57;10.37;;;;;;;;;;5041781;28;20230;-87
2024/01/31 07:40:27;;;;;;;26.63;10.20;;;;;;;;;;5042733;28;20215;-86
2024/01/31 07:42:53;;;;;;;23.37;10.33;;;;;;;;;;5041547;28;20326;-87
2024/01/31 07:45:24;;;;;;;21.97;11.90;;;;;;;;;;5040583;28;20207;-86
2024/01/31 07:47:51;;;;;;;25.93;11.50;;;;;;;;;;5040551;28;20239;-86
2024/01/31 07:50:19;;;;;;;20.73;10.60;;;;;;;;;;5041949;28;20192;-86
2024/01/31 07:52:47;;;;;;;16.97;10.17;;;;;;;;;;5045103;28;20238;-87
2024/01/31 07:55:17;;;;;;;27.67;9.73;;;;;;;;;;5045991;28;20204;-85
2024/01/31 07:57:46;;;;;;;26.30;11.07;;;;;;;;;;5045612;28;20211;-86
2024/01/31 08:00:14;;;;;;;17.07;10.40;;;;;;;;;;5045409;28;20264;-86
2024/01/31 08:02:43;;;;;;;37.63;11.93;;;;;;;;;;5045969;28;20196;-86
2024/01/31 08:05:10;;;;;;;32.23;10.60;;;;;;;;;;5046581;28;20207;-87
2024/01/31 08:07:38;;;;;;;23.40;11.83;;;;;;;;;;5043301;28;20227;-86
2024/01/31 08:10:06;;;;;;;28.40;11.50;;;;;;;;;;5027269;28;20804;-88
2024/01/31 08:12:38;;;;;;;16.50;9.23;;;;;;;;;;5025838;28;20435;-85
2024/01/31 08:15:05;;;;;;;17.87;9.73;;;;;;;;;;5023100;28;20205;-87
2024/01/31 08:17:35;;;;;;;20.30;10.83;;;;;;;;;;5026316;28;20224;-85
2024/01/31 08:20:09;;;;;;;22.87;9.00;;;;;;;;;;5023744;28;20208;-87
2024/01/31 08:22:37;;;;;;;17.67;8.70;;;;;;;;;;5024388;28;20215;-87
2024/01/31 08:25:10;;;;;;;17.87;9.23;;;;;;;;;;5022158;28;20523;-86
2024/01/31 08:27:39;;;;;;;14.90;8.97;;;;;;;;;;5023713;28;20212;-86
2024/01/31 08:30:07;;;;;;;18.30;10.17;;;;;;;;;;5025957;28;20279;-86
2024/01/31 08:32:35;;;;;;;13.17;8.07;;;;;;;;;;5025693;28;20243;-86
2024/01/31 08:35:03;;;;;;;17.20;9.80;;;;;;;;;;5021818;28;20185;-88
2024/01/31 08:37:33;;;;;;;22.30;7.97;;;;;;;;;;5018248;28;20208;-86
2024/01/31 08:40:01;;;;;;;17.73;8.03;;;;;;;;;;5018028;28;20208;-87
2024/01/31 08:42:28;;;;;;;14.83;7.67;;;;;;;;;;5018522;28;20507;-87
2024/01/31 08:44:56;;;;;;;14.37;8.97;;;;;;;;;;5025340;28;20200;-86
2024/01/31 08:47:26;;;;;;;20.43;8.57;;;;;;;;;;5037362;28;20242;-87
2024/01/31 08:49:54;;;;;;;15.57;6.93;;;;;;;;;;5036898;28;20919;-86
2024/01/31 08:52:21;;;;;;;13.93;8.07;;;;;;;;;;5038262;28;20235;-87
2024/01/31 08:54:51;;;;;;;16.27;8.13;;;;;;;;;;5037976;28;20199;-87
2024/01/31 08:57:18;;;;;;;24.97;8.73;;;;;;;;;;5036775;28;20676;-86
2024/01/31 08:59:47;;;;;;;19.80;8.00;;;;;;;;;;5035868;28;20230;-85
2024/01/31 09:02:15;;;;;;;18.63;9.00;;;;;;;;;;5018672;28;20188;-86
2024/01/31 09:04:47;;;;;;;19.17;8.13;;;;;;;;;;5037610;28;20254;-87
2024/01/31 09:07:14;;;;;;;19.50;9.73;;;;;;;;;;5035914;28;20200;-87
2024/01/31 09:09:42;;;;;;;22.23;13.87;;;;;;;;;;5020030;28;20239;-87
2024/01/31 09:12:12;;;;;;;21.50;8.93;;;;;;;;;;5018919;28;20224;-87
2024/01/31 09:14:40;;;;;;;15.30;7.90;;;;;;;;;;5018653;28;20567;-87
2024/01/31 09:17:08;;;;;;;12.70;8.10;;;;;;;;;;5017483;28;20185;-88
2024/01/31 09:19:37;;;;;;;20.00;8.13;;;;;;;;;;5021357;28;20307;-87
2024/01/31 09:22:05;;;;;;;17.90;8.40;;;;;;;;;;5032897;28;20223;-86
2024/01/31 09:24:34;;;;;;;14.53;8.23;;;;;;;;;;5030535;28;20576;-88
2024/01/31 09:27:02;;;;;;;32.77;8.30;;;;;;;;;;5034421;28;20236;-87
2024/01/31 09:29:35;;;;;;;21.03;8.83;;;;;;;;;;5022092;28;20248;-86
2024/01/31 09:32:03;;;;;;;11.17;5.67;;;;;;;;;;5035080;28;20220;-87
2024/01/31 09:34:32;;;;;;;13.03;7.30;;;;;;;;;;5033983;28;20232;-86
2024/01/31 09:37:00;;;;;;;11.73;8.23;;;;;;;;;;5023774;28;20233;-86
2024/01/31 09:39:28;;;;;;;16.13;7.73;;;;;;;;;;5033992;28;20223;-87
2024/01/31 09:41:57;;;;;;;16.77;8.20;;;;;;;;;;5035693;28;20242;-87
2024/01/31 09:44:26;;;;;;;15.70;8.00;;;;;;;;;;5036676;28;20239;-86
2024/01/31 09:46:57;;;;;;;17.70;8.63;;;;;;;;;;5035285;28;20223;-87
2024/01/31 09:49:25;;;;;;;17.13;6.87;;;;;;;;;;5035298;28;20811;-86
2024/01/31 09:51:58;;;;;;;13.37;6.73;;;;;;;;;;5035302;28;20633;-86
2024/01/31 09:54:28;;;;;;;11.43;7.00;;;;;;;;;;5035732;28;20363;-87
2024/01/31 09:56:57;;;;;;;16.67;9.00;;;;;;;;;;5038402;28;20301;-86
2024/01/31 09:59:26;;;;;;;12.70;7.60;;;;;;;;;;5049693;28;20238;-86
2024/01/31 10:01:58;;;;;;;15.23;7.83;;;;;;;;;;5052560;28;20219;-86
2024/01/31 10:04:27;;;;;;;26.67;7.43;;;;;;;;;;5050262;28;20220;-86
2024/01/31 10:06:55;;;;;;;12.07;6.93;;;;;;;;;;5052811;28;20255;-87
2024/01/31 10:09:26;;;;;;;12.30;6.90;;;;;;;;;;5045499;28;20334;-87
2024/01/31 10:11:54;;;;;;;9.83;7.27;;;;;;;;;;5040576;28;20244;-86
2024/01/31 10:14:21;;;;;;;9.63;6.90;;;;;;;;;;5042379;28;20731;-87
2024/01/31 10:16:55;;;;;;;11.70;6.73;;;;;;;;;;5042737;28;20278;-87
2024/01/31 10:19:23;;;;;;;11.63;7.90;;;;;;;;;;5047092;28;20220;-87
2024/01/31 10:22:04;;;;;;;12.17;6.83;;;;;;;;;;5053621;28;20222;-87
2024/01/31 10:24:39;;;;;;;11.43;7.47;;;;;;;;;;5043934;28;20236;-86
2024/01/31 10:27:08;;;;;;;17.43;7.80;;;;;;;;;;5037536;28;20215;-87
2024/01/31 10:29:36;;;;;;;15.27;6.80;;;;;;;;;;5035850;28;20227;-87
2024/01/31 10:32:05;;;;;;;19.00;7.40;;;;;;;;;;5035722;28;20216;-86
2024/01/31 10:34:34;;;;;;;20.40;7.30;;;;;;;;;;5036586;28;20236;-87
2024/01/31 10:37:05;;;;;;;17.47;8.50;;;;;;;;;;5041902;28;20286;-86
2024/01/31 10:39:34;;;;;;;14.83;7.63;;;;;;;;;;5042275;28;20230;-88
2024/01/31 10:42:02;;;;;;;15.17;7.23;;;;;;;;;;5041866;28;20227;-87
2024/01/31 10:44:30;;;;;;;20.60;6.83;;;;;;;;;;5033404;28;20315;-87
2024/01/31 10:47:01;;;;;;;18.60;9.07;;;;;;;;;;5034425;28;20310;-85
2024/01/31 10:49:46;;;;;;;11.97;7.60;;;;;;;;;;5035574;28;20227;-87
2024/01/31 10:52:18;;;;;;;20.70;8.00;;;;;;;;;;5033675;28;20220;-86
2024/01/31 10:54:50;;;;;;;15.07;8.77;;;;;;;;;;5033593;28;20254;-87
2024/01/31 10:57:18;;;;;;;14.67;8.07;;;;;;;;;;5035596;28;20715;-87
2024/01/31 10:59:49;;;;;;;12.50;6.77;;;;;;;;;;5034469;28;20223;-86
2024/01/31 11:02:17;;;;;;;21.50;8.27;;;;;;;;;;5034821;28;20305;-87
2024/01/31 11:05:00;;;;;;;10.50;7.00;;;;;;;;;;5032999;28;20247;-86
2024/01/31 11:07:34;;;;;;;13.77;8.93;;;;;;;;;;5036083;28;20293;-86
2024/01/31 11:10:05;;;;;;;9.27;6.43;;;;;;;;;;5035597;28;20234;-87
2024/01/31 11:12:33;;;;;;;14.70;7.53;;;;;;;;;;5037305;28;20223;-88
2024/01/31 11:15:09;;;;;;;10.90;6.67;;;;;;;;;;5034571;28;20235;-87
2024/01/31 11:17:44;;;;;;;10.40;6.93;;;;;;;;;;5036195;28;20223;-87
2024/01/31 11:20:16;;;;;;;12.73;6.93;;;;;;;;;;5015904;28;20252;-87
2024/01/31 11:22:46;;;;;;;13.33;6.87;;;;;;;;;;5015485;28;20705;-88
2024/01/31 11:25:14;;;;;;;8.07;5.60;;;;;;;;;;5019597;28;20225;-89
2024/01/31 11:27:46;;;;;;;13.97;6.40;;;;;;;;;;5018997;28;20217;-88
2024/01/31 11:30:15;;;;;;;9.60;5.53;;;;;;;;;;5017665;28;20229;-88
2024/01/31 11:32:43;;;;;;;12.00;5.80;;;;;;;;;;5018016;28;20280;-87
2024/01/31 11:35:13;;;;;;;14.40;6.80;;;;;;;;;;5018472;28;20231;-88
2024/01/31 11:37:41;;;;;;;19.03;7.13;;;;;;;;;;5019010;28;20302;-87
2024/01/31 11:40:12;;;;;;;10.63;6.23;;;;;;;;;;5019233;28;20243;-87
2024/01/31 11:42:41;;;;;;;17.23;7.07;;;;;;;;;;5031414;28;20484;-86
2024/01/31 11:45:09;;;;;;;12.70;5.93;;;;;;;;;;5039132;28;20224;-87
2024/01/31 11:47:40;;;;;;;16.67;6.23;;;;;;;;;;5037885;28;20639;-87
2024/01/31 11:50:09;;;;;;;18.10;5.07;;;;;;;;;;5015556;28;20243;-87
2024/01/31 11:52:41;;;;;;;8.60;5.27;;;;;;;;;;5015019;28;20740;-86
2024/01/31 11:55:12;;;;;;;9.53;6.13;;;;;;;;;;5015269;28;20236;-87
2024/01/31 11:57:41;;;;;;;10.87;5.70;;;;;;;;;;5011212;28;20228;-87
2024/01/31 12:00:10;;;;;;;12.00;7.53;;;;;;;;;;4999243;28;20776;-87
2024/01/31 12:02:41;;;;;;;22.13;8.07;;;;;;;;;;5021160;28;20228;-86
2024/01/31 12:05:09;;;;;;;12.53;7.20;;;;;;;;;;5024458;28;20220;-88
2024/01/31 12:07:38;;;;;;;10.07;5.53;;;;;;;;;;5015801;28;20228;-87
2024/01/31 12:10:08;;;;;;;5.57;4.40;;;;;;;;;;5016387;28;20227;-88
2024/01/31 12:12:42;;;;;;;9.73;5.43;;;;;;;;;;5015439;28;20232;-86
2024/01/31 12:15:17;;;;;;;11.50;5.67;;;;;;;;;;5017342;28;20236;-88
2024/01/31 12:17:51;;;;;;;15.53;6.17;;;;;;;;;;5036979;28;20211;-86
2024/01/31 12:20:19;;;;;;;5.87;5.07;;;;;;;;;;5034306;28;20272;-87
2024/01/31 12:23:01;;;;;;;15.07;6.13;;;;;;;;;;5032990;28;20232;-88
2024/01/31 12:25:34;;;;;;;9.17;6.37;;;;;;;;;;5034126;28;20224;-87
2024/01/31 12:28:12;;;;;;;7.03;5.77;;;;;;;;;;5032053;28;20255;-88
2024/01/31 12:30:53;;;;;;;;;;;;;;;;;;;;;
2024/01/31 12:33:22;;;;;;;9.47;6.20;;;;;;;;;;5035888;28;20236;-88
2024/01/31 12:35:51;;;;;;;12.27;6.53;;;;;;;;;;5031928;28;20219;-88
2024/01/31 12:38:19;;;;;;;12.13;6.37;;;;;;;;;;5021033;28;20315;-88
2024/01/31 12:40:51;;;;;;;12.93;5.47;;;;;;;;;;5037100;28;20327;-86
2024/01/31 12:43:35;;;;;;;16.37;5.70;;;;;;;;;;5036766;28;20231;-89
2024/01/31 12:46:12;;;;;;;14.63;5.73;;;;;;;;;;5036133;28;20223;-88
2024/01/31 12:48:40;;;;;;;6.17;4.50;;;;;;;;;;5039521;28;20227;-87
2024/01/31 12:51:07;;;;;;;13.27;6.73;;;;;;;;;;5043739;28;20224;-86
2024/01/31 12:53:35;;;;;;;17.83;7.73;;;;;;;;;;5043352;28;20290;-87
2024/01/31 12:56:05;;;;;;;14.37;7.67;;;;;;;;;;5045259;28;20242;-88
2024/01/31 12:58:35;;;;;;;17.63;7.57;;;;;;;;;;5048728;28;20220;-89
2024/01/31 13:01:04;;;;;;;12.13;7.50;;;;;;;;;;5045708;28;20223;-88
2024/01/31 13:03:32;;;;;;;12.47;6.43;;;;;;;;;;5046329;28;20228;-89
2024/01/31 13:06:02;;;;;;;13.47;7.10;;;;;;;;;;5044717;28;20232;-87
2024/01/31 13:08:35;;;;;;;12.40;8.40;;;;;;;;;;5047129;28;20251;-89
2024/01/31 13:11:06;;;;;;;12.40;6.63;;;;;;;;;;5044496;28;20291;-87
2024/01/31 13:13:40;;;;;;;24.10;8.30;;;;;;;;;;5029235;28;20232;-90
2024/01/31 13:16:13;;;;;;;22.30;7.33;;;;;;;;;;5029060;28;20354;-88
2024/01/31 13:18:44;;;;;;;9.30;7.10;;;;;;;;;;5030272;28;20212;-88
2024/01/31 13:21:13;;;;;;;14.70;8.80;;;;;;;;;;5029303;28;20216;-88
2024/01/31 13:23:42;;;;;;;17.07;7.80;;;;;;;;;;5020923;28;20633;-88
2024/01/31 13:26:11;;;;;;;10.13;7.27;;;;;;;;;;5023454;28;20224;-87
2024/01/31 13:28:47;;;;;;;15.40;7.53;;;;;;;;;;5023156;28;20251;-87
2024/01/31 13:31:17;;;;;;;13.67;8.30;;;;;;;;;;5024356;28;20246;-87
2024/01/31 13:33:44;;;;;;;15.73;9.10;;;;;;;;;;5021165;28;20236;-89
2024/01/31 13:36:12;;;;;;;12.77;8.20;;;;;;;;;;5022221;28;20244;-86
2024/01/31 13:38:40;;;;;;;16.13;8.33;;;;;;;;;;5021788;28;20584;-90
2024/01/31 13:41:09;;;;;;;15.47;9.43;;;;;;;;;;5024521;28;20239;-88
2024/01/31 13:43:40;;;;;;;27.70;10.90;;;;;;;;;;5025959;28;20294;-88
2024/01/31 13:46:14;;;;;;;15.70;9.13;;;;;;;;;;5023300;28;20220;-89
2024/01/31 13:48:43;;;;;;;18.07;8.43;;;;;;;;;;5026077;28;20227;-88
2024/01/31 13:51:18;;;;;;;15.77;8.83;;;;;;;;;;5041078;28;20242;-87
2024/01/31 13:54:04;;;;;;;32.13;10.17;;;;;;;;;;5040822;28;20227;-88
2024/01/31 13:56:37;;;;;;;26.67;10.87;;;;;;;;;;5041727;28;20242;-89
2024/01/31 13:59:09;;;;;;;19.37;10.77;;;;;;;;;;5045014;28;20224;-89
2024/01/31 14:01:48;;;;;;;32.63;11.07;;;;;;;;;;5041576;28;20239;-88
2024/01/31 14:04:25;;;;;;;16.13;9.97;;;;;;;;;;5038053;28;20247;-88
2024/01/31 14:09:37;;;;;;;26.67;12.00;;;;;;;;;;5025015;28;20224;-87
2024/01/31 14:12:08;;;;;;;24.63;11.00;;;;;;;;;;5028449;28;20227;-88
2024/01/31 14:14:51;;;;;;;25.37;11.67;;;;;;;;;;5015489;28;20239;-87
2024/01/31 14:17:32;;;;;;;30.53;11.77;;;;;;;;;;5026856;28;20228;-87
2024/01/31 14:20:02;;;;;;;27.17;11.93;;;;;;;;;;5025483;28;20236;-88
2024/01/31 14:22:36;;;;;;;25.00;11.83;;;;;;;;;;5026566;28;20292;-88
2024/01/31 14:25:05;;;;;;;26.93;12.87;;;;;;;;;;5025726;28;20224;-87
2024/01/31 14:30:17;;;;;;;10.00;6.97;;;;;;;;;;5025469;28;20235;-87
2024/01/31 14:33:13;;;;;;;8.37;6.47;;;;;;;;;;5020220;28;20255;-88
2024/01/31 14:35:55;;;;;;;16.47;8.10;;;;;;;;;;5012157;28;20698;-87
2024/01/31 14:38:24;;;;;;;16.87;8.57;;;;;;;;;;5019552;28;20221;-88
2024/01/31 14:40:52;;;;;;;18.03;8.03;;;;;;;;;;5017689;28;20609;-89
2024/01/31 14:43:20;;;;;;;20.00;7.43;;;;;;;;;;5026010;28;20232;-89
2024/01/31 14:45:49;;;;;;;13.23;7.17;;;;;;;;;;5022794;28;20257;-89
2024/01/31 14:48:21;;;;;;;17.80;5.70;;;;;;;;;;5022330;28;20578;-89
2024/01/31 14:50:55;;;;;;;14.27;7.27;;;;;;;;;;5044129;28;20235;-87
2024/01/31 14:53:23;;;;;;;15.83;7.20;;;;;;;;;;5042678;28;20265;-87
2024/01/31 14:55:50;;;;;;;12.00;5.93;;;;;;;;;;5044802;28;20306;-88
2024/01/31 14:58:18;;;;;;;16.90;5.87;;;;;;;;;;5029664;28;20247;-88